KPHL/PHL METAR and TAF weather

Enter ICAO airport designator
Station Type Date Time Source
KPHL METAR 2021/06/24 05:54 UTC NOAA

KPHL 240554Z 20003KT 10SM CLR 17/12 A3032 RMK AO2 SLP266 T01670122 10233 20167 53005


Station Type Date Time Source
KPHL Decoded METAR 2021/06/24 05:54 UTC NOAA

PHILADELPHIA INTERNATIONAL AIRPT, PA, United States (KPHL) 39-52N 075-14W 18M
Jun 24, 2021 - 01:54 AM EDT / 2021.06.24 0554 UTC
Wind: from the SSW (200 degrees) at 3 MPH (3 KT):0
Visibility: 10 mile(s):0
Sky conditions: clear
Temperature: 62.1 F (16.7 C)
Dew Point: 54.0 F (12.2 C)
Relative Humidity: 74%
Pressure (altimeter): 30.32 in. Hg (1026 hPa)
Pressure tendency: 0.01 inches (0.5 hPa) higher than three hours ago
ob: KPHL 240554Z 20003KT 10SM CLR 17/12 A3032 RMK AO2 SLP266 T01670122 10233 20167 53005
cycle: 6

Station Type Date Time Source
KPHL TAF 2021/06/24 06:31 UTC NOAA

TAF KPHL 240529Z 2406/2512 VRB02KT P6SM FEW250
FM241600 10007KT P6SM FEW250
FM250100 08006KT P6SM SKC
FM250500 04004KT P6SM FEW045

Example: see airport list